Time;durP1;ratioP1;P1;durP2;ratioP2;P2;SDS_P1;SDS_P2;PMS_P1;PMS_P2;Temp;Humidity;BMP_temperature;BMP_pressure;BME280_temperature;BME280_humidity;BME280_pressure;Samples;Min_cycle;Max_cycle;Signal;HPM_P1;HPM_P2
2022/07/15 00:00:58;;;;;;;0.80;0.80;;;;;;;;;;5072725;28;20460;-73
2022/07/15 00:03:25;;;;;;;0.70;0.63;;;;;;;;;;5055972;28;20434;-74
2022/07/15 00:05:54;;;;;;;1.97;0.90;;;;;;;;;;5073696;28;20555;-74
2022/07/15 00:08:21;;;;;;;0.70;0.60;;;;;;;;;;5073182;28;20797;-73
2022/07/15 00:10:49;;;;;;;0.70;0.60;;;;;;;;;;5073910;28;20428;-74
2022/07/15 00:13:15;;;;;;;0.70;0.60;;;;;;;;;;5070192;28;20776;-74
2022/07/15 00:15:43;;;;;;;0.70;0.60;;;;;;;;;;5070313;28;20771;-74
2022/07/15 00:18:11;;;;;;;0.70;0.70;;;;;;;;;;5072000;28;20882;-74
2022/07/15 00:20:38;;;;;;;1.20;1.10;;;;;;;;;;5071724;28;20455;-73
2022/07/15 00:23:06;;;;;;;0.80;0.70;;;;;;;;;;5072237;28;20525;-74
2022/07/15 00:25:33;;;;;;;0.80;0.70;;;;;;;;;;5073667;28;20424;-73
2022/07/15 00:28:02;;;;;;;1.07;0.73;;;;;;;;;;5073350;28;20939;-73
2022/07/15 00:30:29;;;;;;;0.70;0.60;;;;;;;;;;5055986;28;20841;-73
2022/07/15 00:32:56;;;;;;;0.70;0.60;;;;;;;;;;5072838;28;20843;-74
2022/07/15 00:35:23;;;;;;;0.70;0.60;;;;;;;;;;5072472;28;20441;-73
2022/07/15 00:37:49;;;;;;;0.80;0.70;;;;;;;;;;5055226;28;20455;-75
2022/07/15 00:40:18;;;;;;;0.80;0.80;;;;;;;;;;5068470;28;20439;-74
2022/07/15 00:42:45;;;;;;;0.80;0.70;;;;;;;;;;5035494;28;20935;-73
2022/07/15 00:45:13;;;;;;;0.70;0.70;;;;;;;;;;5035558;28;20967;-74
2022/07/15 00:47:40;;;;;;;1.10;1.00;;;;;;;;;;5037494;28;20436;-77
2022/07/15 00:50:07;;;;;;;1.20;1.10;;;;;;;;;;5052140;28;20478;-74
2022/07/15 00:52:38;;;;;;;0.70;0.60;;;;;;;;;;5052117;28;20461;-74
2022/07/15 00:55:07;;;;;;;0.70;0.70;;;;;;;;;;5051266;28;20445;-74
2022/07/15 00:57:39;;;;;;;0.70;0.60;;;;;;;;;;5063486;28;20861;-74
2022/07/15 01:00:12;;;;;;;0.70;0.60;;;;;;;;;;5069309;28;20455;-74
2022/07/15 01:02:44;;;;;;;0.80;0.73;;;;;;;;;;5072209;28;20508;-74
2022/07/15 01:05:14;;;;;;;0.70;0.70;;;;;;;;;;5039851;28;20497;-74
2022/07/15 01:07:43;;;;;;;0.70;0.60;;;;;;;;;;5073330;28;20869;-74
2022/07/15 01:10:12;;;;;;;0.70;0.60;;;;;;;;;;5071049;28;20512;-75
2022/07/15 01:12:46;;;;;;;0.70;0.60;;;;;;;;;;5071346;28;20427;-74
2022/07/15 01:15:16;;;;;;;0.90;0.80;;;;;;;;;;5071757;28;20446;-73
2022/07/15 01:17:45;;;;;;;0.70;0.60;;;;;;;;;;5054984;28;20464;-74
2022/07/15 01:20:14;;;;;;;0.70;0.60;;;;;;;;;;5055692;28;21025;-73
2022/07/15 01:22:55;;;;;;;0.70;0.60;;;;;;;;;;5056525;28;20524;-74
2022/07/15 01:25:31;;;;;;;0.80;0.70;;;;;;;;;;5050446;28;20439;-74
2022/07/15 01:28:05;;;;;;;0.73;0.70;;;;;;;;;;5061235;28;20823;-77
2022/07/15 01:30:36;;;;;;;0.70;0.60;;;;;;;;;;5065107;28;20453;-73
2022/07/15 01:33:11;;;;;;;0.70;0.70;;;;;;;;;;5057201;28;20449;-73
2022/07/15 01:35:39;;;;;;;1.40;1.30;;;;;;;;;;5075348;28;20446;-74
2022/07/15 01:38:12;;;;;;;0.70;0.60;;;;;;;;;;5058631;28;20440;-74
2022/07/15 01:40:41;;;;;;;0.80;0.70;;;;;;;;;;5059354;28;20443;-74
2022/07/15 01:43:10;;;;;;;0.70;0.60;;;;;;;;;;5074982;28;20450;-74
2022/07/15 01:45:42;;;;;;;0.70;0.60;;;;;;;;;;5075325;28;20977;-76
2022/07/15 01:51:39;;;;;;;0.70;0.60;;;;;;;;;;5015047;28;20491;-74
2022/07/15 01:54:12;;;;;;;0.70;0.60;;;;;;;;;;5032987;28;20990;-75
2022/07/15 01:56:41;;;;;;;0.70;0.60;;;;;;;;;;5059004;28;20791;-74
2022/07/15 01:59:11;;;;;;;0.70;0.60;;;;;;;;;;5058982;28;20816;-74
2022/07/15 02:01:42;;;;;;;0.70;0.60;;;;;;;;;;5074900;28;20476;-75
2022/07/15 02:04:13;;;;;;;0.70;0.70;;;;;;;;;;5057858;28;21014;-74
2022/07/15 02:06:41;;;;;;;0.70;0.60;;;;;;;;;;5074580;28;20555;-74
2022/07/15 02:09:16;;;;;;;1.20;1.10;;;;;;;;;;5074771;28;20459;-74
2022/07/15 02:11:47;;;;;;;0.70;0.70;;;;;;;;;;5075098;28;20957;-75
2022/07/15 02:14:15;;;;;;;0.80;0.70;;;;;;;;;;5057042;28;20520;-74
2022/07/15 02:16:46;;;;;;;0.80;0.70;;;;;;;;;;5058831;28;20516;-74
2022/07/15 02:19:17;;;;;;;1.13;1.03;;;;;;;;;;5075067;28;20452;-73
2022/07/15 02:21:47;;;;;;;0.70;0.60;;;;;;;;;;5057648;28;20467;-74
2022/07/15 02:24:19;;;;;;;0.80;0.77;;;;;;;;;;5074608;28;20418;-74
2022/07/15 02:26:46;;;;;;;1.27;1.17;;;;;;;;;;5074729;28;20787;-74
2022/07/15 02:29:14;;;;;;;0.80;0.80;;;;;;;;;;5057313;28;20493;-74
2022/07/15 02:31:42;;;;;;;0.70;0.60;;;;;;;;;;5074070;28;20434;-74
2022/07/15 02:34:09;;;;;;;0.70;0.60;;;;;;;;;;5047041;28;20951;-74
2022/07/15 02:36:38;;;;;;;0.70;0.70;;;;;;;;;;5038544;28;20458;-73
2022/07/15 02:39:05;;;;;;;0.70;0.60;;;;;;;;;;5054157;28;20784;-73
2022/07/15 02:41:34;;;;;;;0.80;0.77;;;;;;;;;;5063488;28;20496;-74
2022/07/15 02:44:07;;;;;;;0.80;0.70;;;;;;;;;;5057541;28;20419;-74
2022/07/15 02:46:36;;;;;;;0.70;0.60;;;;;;;;;;5069109;28;20846;-73
2022/07/15 02:49:03;;;;;;;0.80;0.70;;;;;;;;;;5053473;28;20510;-74
2022/07/15 02:51:32;;;;;;;0.70;0.70;;;;;;;;;;5053918;28;20467;-74
2022/07/15 02:54:00;;;;;;;0.70;0.70;;;;;;;;;;5054170;28;20451;-74
2022/07/15 02:56:29;;;;;;;0.70;0.60;;;;;;;;;;5037862;28;20455;-73
2022/07/15 02:58:58;;;;;;;0.70;0.70;;;;;;;;;;5055161;28;20428;-74
2022/07/15 03:01:25;;;;;;;0.70;0.60;;;;;;;;;;5052497;28;20494;-74
2022/07/15 03:03:53;;;;;;;0.80;0.80;;;;;;;;;;5053749;28;20428;-75
2022/07/15 03:06:21;;;;;;;0.80;0.80;;;;;;;;;;5053902;28;20987;-74
2022/07/15 03:08:48;;;;;;;0.70;0.63;;;;;;;;;;5062852;28;20512;-74
2022/07/15 03:11:17;;;;;;;0.70;0.70;;;;;;;;;;5057393;28;20442;-74
2022/07/15 03:13:47;;;;;;;0.73;0.73;;;;;;;;;;5057325;28;20429;-74
2022/07/15 03:16:15;;;;;;;0.70;0.70;;;;;;;;;;5073705;28;20447;-74
2022/07/15 03:18:45;;;;;;;0.70;0.60;;;;;;;;;;5073615;28;20903;-75
2022/07/15 03:21:14;;;;;;;0.70;0.60;;;;;;;;;;5068392;28;20471;-74
2022/07/15 03:23:42;;;;;;;0.70;0.60;;;;;;;;;;5054307;28;20498;-75
2022/07/15 03:26:08;;;;;;;0.70;0.60;;;;;;;;;;5056449;28;20837;-74
2022/07/15 03:28:36;;;;;;;0.77;0.70;;;;;;;;;;5073643;28;20455;-74
2022/07/15 03:31:05;;;;;;;0.70;0.60;;;;;;;;;;5066957;28;20853;-74
2022/07/15 03:33:33;;;;;;;0.70;0.60;;;;;;;;;;5053268;28;20423;-74
2022/07/15 03:36:01;;;;;;;0.80;0.70;;;;;;;;;;5053072;28;20552;-74
2022/07/15 03:38:30;;;;;;;1.20;1.10;;;;;;;;;;5069402;28;20459;-75
2022/07/15 03:40:57;;;;;;;0.70;0.70;;;;;;;;;;5068562;28;20436;-75
2022/07/15 03:43:29;;;;;;;0.70;0.70;;;;;;;;;;5051438;28;20504;-74
2022/07/15 03:45:57;;;;;;;0.70;0.60;;;;;;;;;;5052352;28;20444;-74
2022/07/15 03:48:24;;;;;;;0.73;0.70;;;;;;;;;;5053033;28;20804;-74
2022/07/15 03:50:53;;;;;;;0.80;0.70;;;;;;;;;;5069405;28;20468;-73
2022/07/15 03:53:20;;;;;;;0.70;0.70;;;;;;;;;;5069223;28;20442;-74
2022/07/15 03:55:47;;;;;;;0.70;0.60;;;;;;;;;;5068696;28;20453;-74
2022/07/15 03:58:14;;;;;;;0.70;0.70;;;;;;;;;;5070086;28;21033;-74
2022/07/15 04:00:41;;;;;;;0.80;0.70;;;;;;;;;;5053385;28;20442;-73
2022/07/15 04:03:08;;;;;;;0.70;0.60;;;;;;;;;;5052475;28;20813;-74
2022/07/15 04:05:38;;;;;;;0.70;0.70;;;;;;;;;;5036018;28;20494;-74
2022/07/15 04:08:06;;;;;;;0.70;0.60;;;;;;;;;;5036261;28;20500;-73
2022/07/15 04:10:33;;;;;;;0.70;0.60;;;;;;;;;;5036448;28;20493;-74
2022/07/15 04:13:00;;;;;;;0.70;0.70;;;;;;;;;;5052387;28;20442;-73
2022/07/15 04:15:29;;;;;;;0.70;0.70;;;;;;;;;;5036417;28;20448;-73
2022/07/15 04:17:58;;;;;;;0.80;0.70;;;;;;;;;;5035257;28;20444;-73
2022/07/15 04:20:25;;;;;;;0.70;0.70;;;;;;;;;;5036556;28;20960;-74
2022/07/15 04:22:55;;;;;;;0.77;0.77;;;;;;;;;;5036377;28;20541;-74
2022/07/15 04:25:23;;;;;;;0.70;0.70;;;;;;;;;;5035992;28;20499;-74
2022/07/15 04:27:51;;;;;;;0.80;0.73;;;;;;;;;;5066221;28;20460;-74
2022/07/15 04:30:23;;;;;;;0.80;0.70;;;;;;;;;;5072500;28;20446;-74
2022/07/15 04:32:50;;;;;;;0.87;0.83;;;;;;;;;;5055638;28;20447;-75
2022/07/15 04:35:19;;;;;;;0.70;0.70;;;;;;;;;;5071895;28;20886;-76
2022/07/15 04:37:52;;;;;;;0.70;0.70;;;;;;;;;;5061607;28;20542;-74
2022/07/15 04:40:20;;;;;;;0.80;0.80;;;;;;;;;;5054784;28;20444;-73
2022/07/15 04:42:48;;;;;;;1.30;1.13;;;;;;;;;;5051963;28;20471;-73
2022/07/15 04:45:17;;;;;;;0.70;0.60;;;;;;;;;;5052850;28;20840;-74
2022/07/15 04:47:44;;;;;;;0.70;0.60;;;;;;;;;;5036267;28;20432;-74
2022/07/15 04:53:09;;;;;;;0.80;0.80;;;;;;;;;;5052147;28;20929;-74
2022/07/15 04:55:37;;;;;;;0.70;0.70;;;;;;;;;;5035647;28;20824;-74
2022/07/15 04:58:06;;;;;;;0.70;0.67;;;;;;;;;;5068140;28;20450;-75
2022/07/15 05:00:33;;;;;;;1.10;1.00;;;;;;;;;;5064598;28;20538;-73
2022/07/15 05:03:04;;;;;;;0.70;0.60;;;;;;;;;;5058700;28;20467;-74
2022/07/15 05:05:33;;;;;;;0.70;0.70;;;;;;;;;;5071629;28;20944;-73
2022/07/15 05:08:00;;;;;;;0.70;0.60;;;;;;;;;;5054869;28;20456;-74
2022/07/15 05:10:36;;;;;;;0.80;0.70;;;;;;;;;;5056483;28;20450;-73
2022/07/15 05:13:06;;;;;;;0.80;0.70;;;;;;;;;;5071285;28;20939;-75
2022/07/15 05:15:34;;;;;;;0.70;0.70;;;;;;;;;;5050697;28;20458;-75
2022/07/15 05:18:14;;;;;;;1.53;1.07;;;;;;;;;;5066555;28;20454;-76
2022/07/15 05:20:41;;;;;;;0.70;0.70;;;;;;;;;;5054808;28;20442;-74
2022/07/15 05:23:10;;;;;;;0.80;0.70;;;;;;;;;;5054991;28;20481;-74
2022/07/15 05:25:44;;;;;;;0.70;0.60;;;;;;;;;;5071356;28;20453;-74
2022/07/15 05:28:12;;;;;;;0.70;0.70;;;;;;;;;;5073022;28;20435;-74
2022/07/15 05:30:41;;;;;;;0.70;0.60;;;;;;;;;;5055580;28;20470;-74
2022/07/15 05:33:10;;;;;;;0.77;0.70;;;;;;;;;;5071223;28;20431;-74
2022/07/15 05:35:38;;;;;;;0.70;0.60;;;;;;;;;;5054707;28;20442;-74
2022/07/15 05:38:07;;;;;;;0.70;0.60;;;;;;;;;;5051633;28;20441;-74
2022/07/15 05:40:35;;;;;;;0.80;0.80;;;;;;;;;;5050783;28;20446;-74
2022/07/15 05:43:02;;;;;;;0.97;0.87;;;;;;;;;;5067918;28;20477;-74
2022/07/15 05:45:33;;;;;;;1.47;1.37;;;;;;;;;;5051269;28;20811;-74
2022/07/15 05:48:04;;;;;;;0.70;0.60;;;;;;;;;;5051389;28;20452;-74
2022/07/15 05:50:39;;;;;;;0.70;0.60;;;;;;;;;;5050933;28;20433;-74
2022/07/15 05:53:08;;;;;;;0.80;0.77;;;;;;;;;;5051083;28;20479;-75
2022/07/15 05:55:35;;;;;;;0.70;0.70;;;;;;;;;;5034967;28;20438;-74
2022/07/15 05:58:04;;;;;;;0.77;0.70;;;;;;;;;;5050904;28;20535;-74
2022/07/15 06:00:33;;;;;;;0.70;0.70;;;;;;;;;;5054349;28;20995;-73
2022/07/15 06:03:01;;;;;;;0.70;0.67;;;;;;;;;;5054767;28;20500;-74
2022/07/15 06:05:30;;;;;;;0.80;0.80;;;;;;;;;;5055341;28;20456;-74
2022/07/15 06:08:01;;;;;;;0.70;0.60;;;;;;;;;;5055177;28;20460;-74
2022/07/15 06:10:34;;;;;;;0.70;0.60;;;;;;;;;;5055548;28;20434;-75
2022/07/15 06:13:01;;;;;;;0.70;0.70;;;;;;;;;;5054469;28;20434;-74
2022/07/15 06:15:27;;;;;;;0.70;0.70;;;;;;;;;;5052511;28;20451;-74
2022/07/15 06:17:57;;;;;;;0.70;0.60;;;;;;;;;;5071534;28;20450;-74
2022/07/15 06:20:29;;;;;;;0.80;0.80;;;;;;;;;;5074249;28;20845;-75
2022/07/15 06:22:56;;;;;;;0.70;0.60;;;;;;;;;;5058676;28;20516;-74
2022/07/15 06:25:22;;;;;;;0.80;0.80;;;;;;;;;;5074452;28;20447;-73
2022/07/15 06:27:50;;;;;;;0.70;0.60;;;;;;;;;;5058842;28;20979;-74
2022/07/15 06:30:18;;;;;;;1.30;1.20;;;;;;;;;;5057753;28;20442;-74
2022/07/15 06:32:45;;;;;;;0.70;0.60;;;;;;;;;;5057945;28;20446;-75
2022/07/15 06:35:13;;;;;;;0.90;0.90;;;;;;;;;;5058669;28;20481;-74
2022/07/15 06:37:41;;;;;;;0.70;0.70;;;;;;;;;;5070149;28;20471;-74
2022/07/15 06:40:08;;;;;;;0.70;0.60;;;;;;;;;;5057676;28;20955;-74
2022/07/15 06:42:37;;;;;;;0.70;0.60;;;;;;;;;;5074508;28;20458;-73
2022/07/15 06:45:09;;;;;;;0.90;0.90;;;;;;;;;;5074603;28;20453;-74
2022/07/15 06:47:39;;;;;;;0.70;0.70;;;;;;;;;;5074185;28;20475;-75
2022/07/15 06:50:06;;;;;;;0.70;0.60;;;;;;;;;;5075437;28;20822;-73
2022/07/15 06:52:35;;;;;;;0.70;0.60;;;;;;;;;;5076556;28;20459;-73
2022/07/15 06:55:05;;;;;;;1.00;0.90;;;;;;;;;;5075901;28;20443;-75
2022/07/15 06:57:31;;;;;;;0.80;0.70;;;;;;;;;;5064346;28;20497;-74
2022/07/15 07:00:00;;;;;;;1.87;1.77;;;;;;;;;;5041263;28;20441;-74
2022/07/15 07:02:28;;;;;;;0.70;0.70;;;;;;;;;;5056502;28;20909;-75
2022/07/15 07:04:57;;;;;;;0.70;0.70;;;;;;;;;;5045125;28;20447;-75
2022/07/15 07:07:24;;;;;;;0.70;0.70;;;;;;;;;;5056694;28;20475;-74
2022/07/15 07:09:52;;;;;;;0.80;0.80;;;;;;;;;;5040091;28;20955;-74
2022/07/15 07:12:19;;;;;;;1.67;1.57;;;;;;;;;;5056481;28;20459;-74
2022/07/15 07:14:46;;;;;;;0.70;0.60;;;;;;;;;;5065289;28;20445;-74
2022/07/15 07:17:13;;;;;;;0.77;0.70;;;;;;;;;;5062020;28;20514;-74
2022/07/15 07:19:39;;;;;;;0.97;0.80;;;;;;;;;;5057677;28;20434;-73
2022/07/15 07:22:07;;;;;;;0.80;0.70;;;;;;;;;;5077331;28;20450;-73
2022/07/15 07:24:34;;;;;;;0.70;0.60;;;;;;;;;;5076516;28;20786;-74
2022/07/15 07:27:02;;;;;;;0.70;0.60;;;;;;;;;;5058764;28;20523;-74
2022/07/15 07:29:32;;;;;;;0.80;0.70;;;;;;;;;;5074178;28;20459;-73
2022/07/15 07:31:59;;;;;;;0.80;0.70;;;;;;;;;;5076246;28;20478;-74
2022/07/15 07:34:27;;;;;;;0.80;0.70;;;;;;;;;;5074848;28;20427;-74
2022/07/15 07:36:54;;;;;;;0.70;0.70;;;;;;;;;;5073083;28;20462;-73
2022/07/15 07:39:24;;;;;;;0.80;0.70;;;;;;;;;;5058591;28;20516;-73
2022/07/15 07:41:53;;;;;;;0.80;0.70;;;;;;;;;;5075178;28;20433;-74
2022/07/15 07:44:21;;;;;;;0.80;0.60;;;;;;;;;;5074022;28;20469;-74
2022/07/15 07:46:49;;;;;;;0.77;0.67;;;;;;;;;;5075989;28;20422;-74
2022/07/15 07:49:17;;;;;;;0.80;0.60;;;;;;;;;;5075761;28;20427;-73
2022/07/15 07:52:01;;;;;;;0.80;0.70;;;;;;;;;;5073822;28;20463;-73
2022/07/15 07:54:29;;;;;;;0.80;0.80;;;;;;;;;;5072765;28;20423;-73
2022/07/15 07:56:56;;;;;;;0.77;0.70;;;;;;;;;;5067264;28;20510;-73
2022/07/15 07:59:24;;;;;;;0.80;0.60;;;;;;;;;;5038159;28;20516;-74
2022/07/15 08:01:51;;;;;;;1.20;1.10;;;;;;;;;;5036784;28;20470;-74
2022/07/15 08:04:19;;;;;;;0.80;0.70;;;;;;;;;;5053855;28;20463;-73
2022/07/15 08:06:45;;;;;;;0.80;0.70;;;;;;;;;;5054657;28;21007;-73
2022/07/15 08:09:12;;;;;;;0.80;0.60;;;;;;;;;;5036232;28;20546;-73
2022/07/15 08:11:40;;;;;;;0.80;0.70;;;;;;;;;;5036241;28;20491;-74
2022/07/15 08:14:08;;;;;;;0.80;0.60;;;;;;;;;;5036321;28;20530;-72
2022/07/15 08:16:36;;;;;;;0.70;0.60;;;;;;;;;;5054465;28;20936;-73
2022/07/15 08:19:04;;;;;;;0.80;0.70;;;;;;;;;;5053167;28;20444;-72
2022/07/15 08:21:31;;;;;;;0.80;0.77;;;;;;;;;;5053351;28;20478;-72
2022/07/15 08:23:58;;;;;;;0.70;0.60;;;;;;;;;;5052270;28;20879;-72
2022/07/15 08:26:25;;;;;;;0.80;0.70;;;;;;;;;;5052603;28;20424;-74
2022/07/15 08:28:51;;;;;;;0.70;0.60;;;;;;;;;;5035565;28;20530;-73
2022/07/15 08:31:30;;;;;;;0.80;0.70;;;;;;;;;;5071060;28;20433;-72
2022/07/15 08:33:58;;;;;;;1.00;0.90;;;;;;;;;;5072275;28;20443;-76
2022/07/15 08:36:27;;;;;;;0.80;0.60;;;;;;;;;;5058871;28;20452;-74
2022/07/15 08:38:53;;;;;;;0.80;0.70;;;;;;;;;;5054891;28;21009;-73
2022/07/15 08:41:20;;;;;;;0.80;0.60;;;;;;;;;;5054240;28;20432;-74
2022/07/15 08:43:47;;;;;;;0.70;0.70;;;;;;;;;;5052615;28;20555;-74
2022/07/15 08:46:15;;;;;;;0.70;0.60;;;;;;;;;;5052018;28;20436;-74
2022/07/15 08:48:48;;;;;;;0.80;0.70;;;;;;;;;;5052039;28;20445;-73
2022/07/15 08:51:18;;;;;;;0.80;0.70;;;;;;;;;;5054090;28;20448;-73
2022/07/15 08:53:45;;;;;;;0.80;0.70;;;;;;;;;;5052752;28;20811;-73
2022/07/15 08:56:12;;;;;;;0.80;0.70;;;;;;;;;;5053858;28;20932;-73
2022/07/15 08:58:39;;;;;;;0.80;0.80;;;;;;;;;;5055400;28;20447;-74
2022/07/15 09:01:25;;;;;;;0.80;0.60;;;;;;;;;;5055660;28;20440;-72
2022/07/15 09:03:53;;;;;;;3.33;1.90;;;;;;;;;;5051137;28;20482;-73
2022/07/15 09:06:34;;;;;;;0.73;0.60;;;;;;;;;;5053814;28;20459;-73
2022/07/15 09:09:15;;;;;;;0.80;0.60;;;;;;;;;;5055078;28;20504;-73
2022/07/15 09:11:42;;;;;;;0.70;0.60;;;;;;;;;;5060499;28;20442;-73
2022/07/15 09:14:11;;;;;;;0.70;0.70;;;;;;;;;;5053018;28;20412;-72
2022/07/15 09:16:38;;;;;;;0.80;0.70;;;;;;;;;;5035362;28;20452;-73
2022/07/15 09:19:05;;;;;;;2.27;1.90;;;;;;;;;;5052565;28;20428;-74
2022/07/15 09:21:33;;;;;;;0.80;0.70;;;;;;;;;;5049864;28;21171;-73
2022/07/15 09:24:15;;;;;;;0.80;0.70;;;;;;;;;;5063912;28;20452;-73
2022/07/15 09:26:41;;;;;;;0.80;0.70;;;;;;;;;;5070335;28;20443;-73
2022/07/15 09:34:58;;;;;;;0.70;0.60;;;;;;;;;;5073252;28;20422;-73
2022/07/15 09:37:26;;;;;;;0.70;0.60;;;;;;;;;;5071278;28;20459;-72
2022/07/15 09:39:55;;;;;;;0.70;0.60;;;;;;;;;;5070978;28;20451;-74
2022/07/15 09:42:22;;;;;;;0.70;0.60;;;;;;;;;;5071925;28;20435;-72
2022/07/15 09:44:50;;;;;;;0.70;0.60;;;;;;;;;;5054489;28;20471;-73
2022/07/15 09:47:18;;;;;;;0.80;0.70;;;;;;;;;;5055603;28;21448;-72
2022/07/15 09:49:45;;;;;;;0.80;0.70;;;;;;;;;;5073415;28;20521;-73
2022/07/15 09:52:14;;;;;;;0.80;0.70;;;;;;;;;;5072011;28;20463;-73
2022/07/15 09:54:44;;;;;;;0.70;0.60;;;;;;;;;;5059331;28;20433;-73
2022/07/15 09:57:14;;;;;;;0.80;0.80;;;;;;;;;;5074454;28;20434;-73
2022/07/15 09:59:41;;;;;;;1.57;1.00;;;;;;;;;;5058890;28;20431;-73
2022/07/15 10:02:08;;;;;;;0.70;0.70;;;;;;;;;;5075084;28;20430;-72
2022/07/15 10:04:36;;;;;;;0.80;0.70;;;;;;;;;;5075583;28;20437;-73
2022/07/15 10:07:04;;;;;;;0.80;0.60;;;;;;;;;;5058963;28;20478;-73
2022/07/15 10:09:53;;;;;;;0.70;0.70;;;;;;;;;;5076387;28;20402;-73
2022/07/15 10:12:21;;;;;;;0.80;0.70;;;;;;;;;;5075465;28;20435;-73
2022/07/15 10:15:06;;;;;;;0.70;0.60;;;;;;;;;;5073946;28;20443;-73
2022/07/15 10:18:00;;;;;;;0.70;0.70;;;;;;;;;;5075742;28;20895;-73
2022/07/15 10:20:37;;;;;;;0.70;0.60;;;;;;;;;;5028351;28;20504;-73
2022/07/15 10:23:12;;;;;;;0.80;0.80;;;;;;;;;;5058691;28;20840;-73
2022/07/15 10:25:55;;;;;;;0.80;0.70;;;;;;;;;;5073836;28;20508;-72
2022/07/15 10:28:23;;;;;;;0.80;0.70;;;;;;;;;;5073127;28;20470;-73
2022/07/15 10:31:05;;;;;;;0.70;0.60;;;;;;;;;;5058483;28;20459;-74
2022/07/15 10:33:32;;;;;;;0.70;0.60;;;;;;;;;;5057231;28;20453;-73
2022/07/15 10:36:03;;;;;;;1.20;0.83;;;;;;;;;;5074399;28;20497;-73
2022/07/15 10:38:31;;;;;;;0.70;0.60;;;;;;;;;;5074314;28;20435;-73
2022/07/15 10:41:03;;;;;;;0.80;0.70;;;;;;;;;;5074413;28;20946;-72
2022/07/15 10:43:43;;;;;;;0.80;0.63;;;;;;;;;;5055081;28;20478;-72
2022/07/15 10:46:18;;;;;;;0.80;0.70;;;;;;;;;;5075103;28;20443;-72
2022/07/15 10:48:48;;;;;;;0.70;0.57;;;;;;;;;;5075507;28;20421;-74
2022/07/15 10:51:30;;;;;;;0.77;0.60;;;;;;;;;;5074599;28;20455;-75
2022/07/15 10:53:57;;;;;;;0.70;0.60;;;;;;;;;;5072220;28;20426;-75
2022/07/15 10:56:30;;;;;;;0.70;0.50;;;;;;;;;;5055807;28;20443;-74
2022/07/15 10:59:07;;;;;;;0.70;0.50;;;;;;;;;;5054095;28;20440;-74
2022/07/15 11:01:36;;;;;;;0.70;0.50;;;;;;;;;;5041764;28;20448;-74
2022/07/15 11:04:11;;;;;;;0.80;0.60;;;;;;;;;;5055059;28;20460;-73
2022/07/15 11:06:53;;;;;;;0.80;0.50;;;;;;;;;;5070700;28;20454;-74
2022/07/15 11:09:38;;;;;;;0.80;0.50;;;;;;;;;;5057706;28;20446;-74
2022/07/15 11:12:07;;;;;;;0.80;0.50;;;;;;;;;;5057458;28;20435;-73
2022/07/15 11:14:48;;;;;;;0.70;0.50;;;;;;;;;;5065544;28;20459;-74
2022/07/15 11:17:17;;;;;;;0.80;0.60;;;;;;;;;;5072586;28;20480;-74
2022/07/15 11:19:48;;;;;;;0.70;0.60;;;;;;;;;;5075198;28;20423;-73
2022/07/15 11:22:17;;;;;;;0.70;0.50;;;;;;;;;;5074405;28;20844;-73
2022/07/15 11:24:44;;;;;;;1.00;0.70;;;;;;;;;;5073346;28;20467;-74
2022/07/15 11:27:12;;;;;;;0.70;0.50;;;;;;;;;;5073177;28;20864;-73
2022/07/15 11:29:43;;;;;;;11.93;2.03;;;;;;;;;;5060793;28;20484;-73
2022/07/15 11:32:09;;;;;;;0.70;0.53;;;;;;;;;;5053553;28;20424;-73
2022/07/15 11:34:40;;;;;;;0.70;0.50;;;;;;;;;;5036943;28;20434;-74
2022/07/15 11:37:18;;;;;;;0.70;0.50;;;;;;;;;;5069734;28;20522;-73
2022/07/15 11:39:51;;;;;;;0.70;0.60;;;;;;;;;;5054003;28;20805;-74
2022/07/15 11:45:09;;;;;;;0.93;0.80;;;;;;;;;;5072890;28;20471;-74
2022/07/15 11:47:49;;;;;;;0.77;0.60;;;;;;;;;;5073462;28;20426;-74
2022/07/15 11:50:17;;;;;;;0.70;0.50;;;;;;;;;;5078130;28;20421;-74
2022/07/15 11:52:44;;;;;;;0.90;0.70;;;;;;;;;;5076012;28;20517;-74
2022/07/15 11:55:18;;;;;;;0.70;0.60;;;;;;;;;;5071542;28;20454;-74
2022/07/15 11:57:51;;;;;;;0.70;0.60;;;;;;;;;;5072781;28;20463;-74
2022/07/15 12:00:27;;;;;;;0.70;0.50;;;;;;;;;;5072087;28;20470;-74
2022/07/15 12:03:04;;;;;;;0.80;0.70;;;;;;;;;;5054561;28;20437;-75
2022/07/15 12:05:32;;;;;;;0.80;0.70;;;;;;;;;;5056216;28;20455;-74
2022/07/15 12:07:59;;;;;;;0.70;0.60;;;;;;;;;;5074240;28;20492;-73
2022/07/15 12:10:33;;;;;;;0.80;0.70;;;;;;;;;;5073800;28;20506;-73
2022/07/15 12:13:01;;;;;;;0.80;0.80;;;;;;;;;;5056561;28;20427;-73
2022/07/15 12:15:29;;;;;;;0.80;0.70;;;;;;;;;;5073183;28;20408;-73
2022/07/15 12:17:57;;;;;;;1.90;1.80;;;;;;;;;;5074979;28;20426;-73
2022/07/15 12:20:26;;;;;;;0.70;0.60;;;;;;;;;;5072541;28;20434;-73
2022/07/15 12:23:06;;;;;;;0.90;0.90;;;;;;;;;;5071988;28;20466;-73
2022/07/15 12:25:33;;;;;;;0.83;0.60;;;;;;;;;;5073591;28;20447;-73
2022/07/15 12:28:01;;;;;;;0.70;0.60;;;;;;;;;;5071118;28;21028;-75
2022/07/15 12:30:32;;;;;;;0.70;0.60;;;;;;;;;;5073154;28;20457;-73
2022/07/15 12:33:15;;;;;;;0.70;0.60;;;;;;;;;;5056478;28;20883;-74
2022/07/15 12:35:42;;;;;;;0.80;0.70;;;;;;;;;;5053261;28;20444;-73
2022/07/15 12:38:09;;;;;;;1.10;1.00;;;;;;;;;;5072699;28;21043;-74
2022/07/15 12:40:36;;;;;;;0.70;0.60;;;;;;;;;;5075156;28;20475;-74
2022/07/15 12:43:04;;;;;;;0.70;0.60;;;;;;;;;;5073355;28;20415;-74
2022/07/15 12:45:35;;;;;;;0.70;0.60;;;;;;;;;;5072006;28;20463;-73
2022/07/15 12:48:04;;;;;;;0.73;0.60;;;;;;;;;;5072493;28;20816;-73
2022/07/15 12:50:34;;;;;;;0.70;0.60;;;;;;;;;;5073595;28;20530;-74
2022/07/15 12:53:01;;;;;;;0.70;0.50;;;;;;;;;;5072721;28;20462;-73
2022/07/15 12:55:29;;;;;;;0.70;0.60;;;;;;;;;;5072354;28;20419;-74
2022/07/15 12:58:04;;;;;;;0.70;0.60;;;;;;;;;;5062085;28;20483;-75
2022/07/15 13:00:31;;;;;;;0.80;0.60;;;;;;;;;;5055606;28;20438;-73
2022/07/15 13:03:03;;;;;;;0.70;0.60;;;;;;;;;;5063979;28;20501;-73
2022/07/15 13:05:32;;;;;;;0.70;0.60;;;;;;;;;;5056587;28;20879;-73
2022/07/15 13:07:59;;;;;;;1.27;1.00;;;;;;;;;;5052680;28;20409;-74
2022/07/15 13:10:27;;;;;;;0.70;0.60;;;;;;;;;;5052339;28;20462;-80
2022/07/15 13:12:54;;;;;;;0.80;0.80;;;;;;;;;;5053242;28;20405;-80
2022/07/15 13:15:22;;;;;;;1.30;1.20;;;;;;;;;;5060884;28;20476;-80
2022/07/15 13:17:49;;;;;;;0.80;0.70;;;;;;;;;;5061056;28;20884;-79
2022/07/15 13:20:17;;;;;;;0.70;0.60;;;;;;;;;;5056418;28;20463;-81
2022/07/15 13:22:44;;;;;;;0.70;0.60;;;;;;;;;;5055209;28;20464;-80
2022/07/15 13:25:13;;;;;;;7.83;0.90;;;;;;;;;;5057530;28;20455;-81
2022/07/15 13:27:40;;;;;;;0.70;0.60;;;;;;;;;;5070511;28;20972;-79
2022/07/15 13:30:08;;;;;;;0.80;0.70;;;;;;;;;;5078954;28;20419;-81
2022/07/15 13:32:38;;;;;;;0.80;0.70;;;;;;;;;;5079036;28;20465;-81
2022/07/15 13:35:07;;;;;;;0.80;0.70;;;;;;;;;;5076270;28;20431;-80
2022/07/15 13:37:34;;;;;;;0.80;0.70;;;;;;;;;;5079120;28;20445;-81
2022/07/15 13:40:02;;;;;;;0.70;0.60;;;;;;;;;;5061029;28;20435;-80
2022/07/15 13:42:29;;;;;;;0.70;0.50;;;;;;;;;;5059400;28;20436;-80
2022/07/15 13:44:59;;;;;;;0.70;0.50;;;;;;;;;;5058970;28;20448;-81
2022/07/15 13:47:26;;;;;;;0.70;0.60;;;;;;;;;;5060880;28;20424;-81
2022/07/15 13:52:42;;;;;;;0.80;0.50;;;;;;;;;;5076036;28;20512;-80
2022/07/15 13:55:09;;;;;;;0.80;0.50;;;;;;;;;;5059677;28;20435;-79
2022/07/15 13:57:37;;;;;;;0.80;0.50;;;;;;;;;;5075855;28;20530;-79
2022/07/15 14:00:04;;;;;;;0.90;0.60;;;;;;;;;;5074348;28;20442;-79
2022/07/15 14:02:31;;;;;;;0.80;0.50;;;;;;;;;;5071396;28;20457;-76
2022/07/15 14:04:59;;;;;;;0.80;0.50;;;;;;;;;;5064373;28;20468;-79
2022/07/15 14:07:26;;;;;;;0.80;0.50;;;;;;;;;;5055912;28;20455;-79
2022/07/15 14:09:53;;;;;;;1.53;1.43;;;;;;;;;;5056989;28;20470;-81
2022/07/15 14:12:20;;;;;;;0.70;0.60;;;;;;;;;;5056046;28;20848;-78
2022/07/15 14:14:48;;;;;;;0.70;0.60;;;;;;;;;;5057242;28;20424;-79
2022/07/15 14:17:15;;;;;;;0.80;0.60;;;;;;;;;;5054857;28;20427;-79
2022/07/15 14:19:42;;;;;;;0.70;0.60;;;;;;;;;;5056821;28;20416;-80
2022/07/15 14:22:11;;;;;;;0.80;0.60;;;;;;;;;;5038848;28;20468;-79
2022/07/15 14:24:39;;;;;;;0.80;0.60;;;;;;;;;;5056306;28;20419;-79
2022/07/15 14:27:06;;;;;;;0.70;0.60;;;;;;;;;;5065990;28;20923;-78
2022/07/15 14:29:33;;;;;;;0.80;0.70;;;;;;;;;;5075897;28;20543;-79
2022/07/15 14:32:00;;;;;;;0.80;0.63;;;;;;;;;;5071649;28;20482;-80
2022/07/15 14:34:28;;;;;;;0.70;0.60;;;;;;;;;;5055391;28;20558;-79
2022/07/15 14:36:55;;;;;;;0.70;0.60;;;;;;;;;;5054763;28;20475;-78
2022/07/15 14:39:43;;;;;;;0.80;0.60;;;;;;;;;;5054489;28;20522;-78
2022/07/15 14:42:11;;;;;;;0.70;0.50;;;;;;;;;;5054907;28;20440;-77
2022/07/15 14:44:38;;;;;;;0.70;0.60;;;;;;;;;;5053725;28;20447;-78
2022/07/15 14:47:05;;;;;;;0.70;0.60;;;;;;;;;;5054280;28;20479;-79
2022/07/15 14:49:33;;;;;;;0.80;0.60;;;;;;;;;;5054336;28;21013;-79
2022/07/15 14:52:00;;;;;;;0.70;0.60;;;;;;;;;;5059909;28;20524;-78
2022/07/15 14:54:27;;;;;;;0.80;0.60;;;;;;;;;;5056073;28;20871;-79
2022/07/15 14:56:55;;;;;;;0.80;0.60;;;;;;;;;;5055167;28;21028;-77
2022/07/15 14:59:24;;;;;;;0.80;0.67;;;;;;;;;;5056319;28;20483;-80
2022/07/15 15:01:53;;;;;;;0.70;0.60;;;;;;;;;;5041820;28;20486;-79
2022/07/15 15:04:20;;;;;;;0.80;0.70;;;;;;;;;;5057000;28;20409;-78
2022/07/15 15:06:47;;;;;;;0.80;0.70;;;;;;;;;;5058864;28;20875;-79
2022/07/15 15:09:14;;;;;;;0.90;0.70;;;;;;;;;;5058418;28;20792;-80
2022/07/15 15:11:41;;;;;;;0.80;0.70;;;;;;;;;;5056525;28;20499;-79
2022/07/15 15:14:10;;;;;;;0.70;0.63;;;;;;;;;;5038402;28;20507;-79